createdAt,value
2019-01-19T00:00:16.810Z,-2.20
2019-01-19T00:02:57.738Z,-2.30
2019-01-19T00:05:38.826Z,-2.30
2019-01-19T00:08:19.253Z,-2.30
2019-01-19T00:11:00.134Z,-2.50
2019-01-19T00:13:41.141Z,-2.40
2019-01-19T00:16:21.620Z,-2.50
2019-01-19T00:19:02.723Z,-2.60
2019-01-19T00:21:45.802Z,-2.70
2019-01-19T00:24:52.978Z,-2.70
2019-01-19T00:28:00.090Z,-2.70
2019-01-19T00:31:07.182Z,-2.80
2019-01-19T00:34:14.366Z,-2.70
2019-01-19T00:36:55.341Z,-2.70
2019-01-19T00:39:35.962Z,-2.60
2019-01-19T00:42:16.937Z,-2.70
2019-01-19T00:44:58.090Z,-2.60
2019-01-19T00:47:38.798Z,-2.60
2019-01-19T00:50:19.397Z,-2.70
2019-01-19T00:53:00.075Z,-2.60
2019-01-19T00:55:41.061Z,-2.70
2019-01-19T00:58:22.292Z,-2.80
2019-01-19T01:01:03.118Z,-2.90
2019-01-19T01:03:44.309Z,-3.00
2019-01-19T01:06:24.978Z,-2.80
2019-01-19T01:09:05.533Z,-2.90
2019-01-19T01:11:46.878Z,-3.10
2019-01-19T01:14:27.638Z,-3.20
2019-01-19T01:17:08.997Z,-3.20
2019-01-19T01:19:49.242Z,-3.30
2019-01-19T01:22:30.522Z,-3.30
2019-01-19T01:25:11.271Z,-3.30
2019-01-19T01:27:51.669Z,-3.50
2019-01-19T01:30:32.071Z,-3.40
2019-01-19T01:33:12.767Z,-3.40
2019-01-19T01:35:53.739Z,-3.40
2019-01-19T01:38:34.730Z,-3.40
2019-01-19T01:41:15.899Z,-3.60
2019-01-19T01:43:56.433Z,-3.50
2019-01-19T01:46:37.318Z,-3.60
2019-01-19T01:49:21.705Z,-3.70
2019-01-19T01:52:05.563Z,-3.70
2019-01-19T01:54:46.309Z,-3.70
2019-01-19T01:57:27.099Z,-3.80
2019-01-19T02:00:07.682Z,-3.80
2019-01-19T02:02:48.614Z,-3.70
2019-01-19T02:05:29.454Z,-3.60
2019-01-19T02:08:10.154Z,-3.70
2019-01-19T02:10:51.243Z,-3.60
2019-01-19T02:13:32.003Z,-3.60
2019-01-19T02:16:12.887Z,-3.70
2019-01-19T02:18:53.908Z,-3.70
2019-01-19T02:21:34.398Z,-3.80
2019-01-19T02:24:15.446Z,-3.80
2019-01-19T02:26:55.907Z,-3.80
2019-01-19T02:29:37.186Z,-3.80
2019-01-19T02:32:17.694Z,-3.70
2019-01-19T02:34:58.814Z,-3.70
2019-01-19T02:37:39.354Z,-3.80
2019-01-19T02:40:20.298Z,-3.80
2019-01-19T02:43:00.986Z,-3.70
2019-01-19T02:45:42.214Z,-3.60
2019-01-19T02:48:22.894Z,-3.60
2019-01-19T02:51:03.622Z,-3.80
2019-01-19T02:53:44.845Z,-3.80
2019-01-19T02:56:25.778Z,-3.80
2019-01-19T02:59:07.048Z,-3.80
2019-01-19T03:01:47.498Z,-3.90
2019-01-19T03:04:28.175Z,-4.00
2019-01-19T03:07:09.090Z,-3.90
2019-01-19T03:09:50.267Z,-3.90
2019-01-19T03:12:31.316Z,-4.00
2019-01-19T03:15:11.869Z,-4.00
2019-01-19T03:17:52.674Z,-4.00
2019-01-19T03:20:33.444Z,-3.90
2019-01-19T03:23:14.214Z,-3.90
2019-01-19T03:25:54.821Z,-3.90
2019-01-19T03:28:35.784Z,-3.80
2019-01-19T03:31:16.537Z,-3.60
2019-01-19T03:33:57.273Z,-3.70
2019-01-19T03:36:37.847Z,-3.60
2019-01-19T03:39:18.433Z,-3.60
2019-01-19T03:41:59.421Z,-3.60
2019-01-19T03:44:40.345Z,-3.70
2019-01-19T03:47:21.406Z,-3.50
2019-01-19T03:50:01.735Z,-3.60
2019-01-19T03:52:42.662Z,-3.60
2019-01-19T03:55:23.749Z,-3.50
2019-01-19T03:58:04.626Z,-3.60
2019-01-19T04:00:45.342Z,-3.90
2019-01-19T04:03:26.781Z,-3.90
2019-01-19T04:06:12.612Z,-3.80
2019-01-19T04:08:50.531Z,-3.70
2019-01-19T04:11:34.505Z,-3.80
2019-01-19T04:14:15.430Z,-3.80
2019-01-19T04:16:56.326Z,-3.80
2019-01-19T04:19:36.927Z,-3.80
2019-01-19T04:22:17.782Z,-3.70
2019-01-19T04:24:58.884Z,-3.80
2019-01-19T04:27:39.795Z,-4.10
2019-01-19T04:30:20.778Z,-4.20
2019-01-19T04:33:01.982Z,-4.20
2019-01-19T04:35:42.306Z,-4.30
2019-01-19T04:38:21.034Z,-4.40
2019-01-19T04:41:08.815Z,-4.40
2019-01-19T04:43:56.903Z,-4.50
2019-01-19T04:46:44.682Z,-4.40
2019-01-19T04:49:32.786Z,-4.30
2019-01-19T04:52:20.566Z,-4.40
2019-01-19T04:58:16.921Z,-4.50
2019-01-19T05:01:04.694Z,-4.40
2019-01-19T05:03:52.473Z,-4.50
2019-01-19T05:06:40.582Z,-4.60
2019-01-19T05:12:21.517Z,-4.70
2019-01-19T05:15:28.635Z,-4.80
2019-01-19T05:29:54.345Z,-4.70
2019-01-19T05:32:42.105Z,-4.70
2019-01-19T05:35:30.234Z,-4.60
2019-01-19T05:38:11.227Z,-4.60
2019-01-19T05:40:51.954Z,-4.60
2019-01-19T05:43:32.718Z,-4.70
2019-01-19T05:46:21.213Z,-4.60
2019-01-19T05:48:56.554Z,-4.70
2019-01-19T05:51:37.219Z,-4.60
2019-01-19T05:54:17.959Z,-4.70
2019-01-19T05:56:58.613Z,-4.70
2019-01-19T05:59:39.587Z,-4.90
2019-01-19T06:02:22.306Z,-4.90
2019-01-19T06:05:03.486Z,-4.80
2019-01-19T06:07:44.678Z,-4.90
2019-01-19T06:10:23.790Z,-4.90
2019-01-19T06:13:11.559Z,-4.90
2019-01-19T06:15:59.334Z,-5.00
2019-01-19T06:24:40.153Z,-4.90
2019-01-19T06:27:28.266Z,-4.80
2019-01-19T06:30:35.643Z,-5.00
2019-01-19T06:33:23.449Z,-4.90
2019-01-19T06:36:11.274Z,-5.00
2019-01-19T06:38:39.993Z,-5.00
2019-01-19T06:41:27.774Z,-4.90
2019-01-19T06:44:15.563Z,-4.90
2019-01-19T06:47:03.339Z,-5.00
2019-01-19T06:49:51.190Z,-5.00
2019-01-19T06:52:38.979Z,-4.90
2019-01-19T06:55:47.722Z,-4.90
2019-01-19T06:58:35.830Z,-4.90
2019-01-19T07:01:23.630Z,-4.90
2019-01-19T07:04:11.408Z,-4.90
2019-01-19T07:07:02.900Z,-4.90
2019-01-19T07:09:48.745Z,-5.00
2019-01-19T07:12:36.858Z,-4.90
2019-01-19T07:15:24.806Z,-5.00
2019-01-19T07:18:12.587Z,-5.00
2019-01-19T07:21:00.371Z,-5.10
2019-01-19T07:23:48.138Z,-5.10
2019-01-19T07:26:36.239Z,-5.20
2019-01-19T07:29:24.014Z,-5.10
2019-01-19T07:32:11.857Z,-5.20
2019-01-19T07:34:59.635Z,-4.90
2019-01-19T07:37:40.726Z,-4.80
2019-01-19T07:40:21.511Z,-4.90
2019-01-19T07:43:03.225Z,-5.10
2019-01-19T07:45:44.002Z,-5.10
2019-01-19T07:48:24.694Z,-5.20
2019-01-19T07:51:05.998Z,-5.10
2019-01-19T07:53:46.482Z,-5.00
2019-01-19T07:56:27.390Z,-5.00
2019-01-19T07:59:08.165Z,-5.10
2019-01-19T08:01:49.226Z,-5.00
2019-01-19T08:04:29.752Z,-4.90
2019-01-19T08:07:17.090Z,-5.00
2019-01-19T08:09:52.702Z,-4.90
2019-01-19T08:12:33.449Z,-4.70
2019-01-19T08:15:14.373Z,-4.50
2019-01-19T08:17:58.606Z,-4.40
2019-01-19T08:20:39.717Z,-4.10
2019-01-19T08:23:20.238Z,-4.00
2019-01-19T08:26:01.127Z,-4.00
2019-01-19T08:28:41.860Z,-3.80
2019-01-19T08:31:22.186Z,-3.70
2019-01-19T08:34:03.313Z,-3.60
2019-01-19T08:36:43.894Z,-3.60
2019-01-19T08:39:25.173Z,-3.50
2019-01-19T08:42:05.827Z,-3.20
2019-01-19T08:44:46.769Z,-3.00
2019-01-19T08:47:27.687Z,-2.70
2019-01-19T08:50:08.927Z,-2.60
2019-01-19T08:52:49.571Z,-2.50
2019-01-19T08:55:30.234Z,-2.40
2019-01-19T08:58:10.870Z,-2.30
2019-01-19T09:00:51.327Z,-2.30
2019-01-19T09:03:32.182Z,-2.10
2019-01-19T09:06:13.249Z,-2.20
2019-01-19T09:08:54.222Z,-2.10
2019-01-19T09:11:35.313Z,-2.00
2019-01-19T09:14:16.007Z,-2.00
2019-01-19T09:16:58.193Z,-2.00
2019-01-19T09:19:38.791Z,-2.00
2019-01-19T09:22:19.523Z,-2.10
2019-01-19T09:25:00.335Z,-1.90
2019-01-19T09:27:40.929Z,-1.90
2019-01-19T09:30:22.050Z,-1.90
2019-01-19T09:33:03.182Z,-1.70
2019-01-19T09:35:43.782Z,-1.60
2019-01-19T09:38:24.238Z,-1.50
2019-01-19T09:41:04.950Z,-1.60
2019-01-19T09:43:45.873Z,-1.50
2019-01-19T09:46:26.661Z,-1.40
2019-01-19T09:49:07.324Z,-1.10
2019-01-19T09:51:48.408Z,-1.10
2019-01-19T09:54:28.655Z,-1.00
2019-01-19T09:57:09.585Z,-0.90
2019-01-19T09:59:50.283Z,-0.80
2019-01-19T10:02:31.183Z,-0.70
2019-01-19T10:05:11.909Z,-0.80
2019-01-19T10:07:55.989Z,-0.60
2019-01-19T10:10:36.917Z,-0.50
2019-01-19T10:13:17.496Z,-0.30
2019-01-19T10:15:58.010Z,-0.30
2019-01-19T10:18:38.990Z,-0.20
2019-01-19T10:21:20.081Z,0.00
2019-01-19T10:24:00.557Z,-0.10
2019-01-19T10:26:41.325Z,0.00
2019-01-19T10:29:22.390Z,0.00
2019-01-19T10:32:05.818Z,0.20
2019-01-19T10:34:46.870Z,0.40
2019-01-19T10:37:27.660Z,0.50
2019-01-19T10:40:08.729Z,0.50
2019-01-19T10:42:49.467Z,0.50
2019-01-19T10:45:29.938Z,0.50
2019-01-19T10:48:10.718Z,0.50
2019-01-19T10:50:51.186Z,0.60
2019-01-19T10:53:32.389Z,0.50
2019-01-19T10:56:12.810Z,0.60
2019-01-19T10:58:53.735Z,0.60
2019-01-19T11:01:34.410Z,0.80
2019-01-19T11:04:15.566Z,0.90
2019-01-19T11:06:56.243Z,1.00
2019-01-19T11:09:37.514Z,1.20
2019-01-19T11:12:18.213Z,1.40
2019-01-19T11:14:59.420Z,1.60
2019-01-19T11:17:40.106Z,1.60
2019-01-19T11:20:21.327Z,1.80
2019-01-19T11:23:02.358Z,1.90
2019-01-19T11:25:42.913Z,2.10
2019-01-19T11:28:24.122Z,2.40
2019-01-19T11:31:05.489Z,2.40
2019-01-19T11:33:44.434Z,2.50
2019-01-19T11:36:32.217Z,2.40
2019-01-19T11:39:12.495Z,2.60
2019-01-19T11:41:53.033Z,2.90
2019-01-19T11:44:33.542Z,3.00
2019-01-19T11:47:14.021Z,3.20
2019-01-19T11:49:54.479Z,3.50
2019-01-19T11:52:35.171Z,3.60
2019-01-19T11:55:19.494Z,3.80
2019-01-19T11:57:59.758Z,4.00
2019-01-19T12:00:40.461Z,4.10
2019-01-19T12:03:20.990Z,4.00
2019-01-19T12:06:02.194Z,3.90
2019-01-19T12:08:41.046Z,4.30
2019-01-19T12:11:28.818Z,4.60
2019-01-19T12:17:23.805Z,3.90
2019-01-19T12:20:30.918Z,4.40
2019-01-19T12:23:18.677Z,5.00
2019-01-19T12:29:09.276Z,5.10
2019-01-19T12:31:57.294Z,5.10
2019-01-19T12:34:45.058Z,5.00
2019-01-19T12:37:26.186Z,5.30
2019-01-19T12:40:06.866Z,5.40
2019-01-19T12:42:47.787Z,5.40
2019-01-19T12:45:28.515Z,5.70
2019-01-19T12:48:09.218Z,5.70
2019-01-19T12:50:50.337Z,5.60
2019-01-19T12:53:30.941Z,5.60
2019-01-19T12:56:11.677Z,6.00
2019-01-19T12:58:52.063Z,6.40
2019-01-19T13:01:32.795Z,6.50
2019-01-19T13:04:13.899Z,6.40
2019-01-19T13:06:54.706Z,6.60
2019-01-19T13:09:37.217Z,6.70
2019-01-19T13:12:18.440Z,6.70
2019-01-19T13:14:59.207Z,6.60
2019-01-19T13:17:40.015Z,6.50
2019-01-19T13:20:20.831Z,6.10
2019-01-19T13:23:01.415Z,6.30
2019-01-19T13:25:42.207Z,6.60
2019-01-19T13:28:22.902Z,6.70
2019-01-19T13:31:03.451Z,6.60
2019-01-19T13:33:44.426Z,6.60
2019-01-19T13:36:25.094Z,6.50
2019-01-19T13:39:06.142Z,6.00
2019-01-19T13:41:46.621Z,6.00
2019-01-19T13:44:27.739Z,5.70
2019-01-19T13:47:08.706Z,5.30
2019-01-19T13:49:49.743Z,5.00
2019-01-19T13:52:30.379Z,4.40
2019-01-19T13:55:11.223Z,4.50
2019-01-19T13:57:51.731Z,4.90
2019-01-19T14:00:32.664Z,5.20
2019-01-19T14:03:13.938Z,5.20
2019-01-19T14:05:54.934Z,5.50
2019-01-19T14:08:35.821Z,6.00
2019-01-19T14:11:16.914Z,5.90
2019-01-19T14:13:57.708Z,5.70
2019-01-19T14:16:38.714Z,5.40
2019-01-19T14:19:21.621Z,5.10
2019-01-19T14:22:02.614Z,5.20
2019-01-19T14:24:43.531Z,5.20
2019-01-19T14:27:24.038Z,5.10
2019-01-19T14:30:04.992Z,5.00
2019-01-19T14:32:45.563Z,4.90
2019-01-19T14:35:54.070Z,4.90
2019-01-19T14:38:36.698Z,5.00
2019-01-19T14:41:17.521Z,5.00
2019-01-19T14:43:58.486Z,5.10
2019-01-19T14:46:39.289Z,5.10
2019-01-19T14:49:19.862Z,4.80
2019-01-19T14:52:00.306Z,4.80
2019-01-19T14:54:40.984Z,4.70
2019-01-19T14:57:21.610Z,4.40
2019-01-19T15:00:02.850Z,4.30
2019-01-19T15:02:43.530Z,4.10
2019-01-19T15:05:24.921Z,3.90
2019-01-19T15:08:05.683Z,3.70
2019-01-19T15:10:46.506Z,3.60
2019-01-19T15:13:26.798Z,3.40
2019-01-19T15:16:08.025Z,3.30
2019-01-19T15:18:49.070Z,3.20
2019-01-19T15:21:30.081Z,3.00
2019-01-19T15:24:10.631Z,1.40
2019-01-19T15:26:51.407Z,2.80
2019-01-19T15:29:33.325Z,2.70
2019-01-19T15:32:14.197Z,2.40
2019-01-19T15:34:54.923Z,2.30
2019-01-19T15:37:35.931Z,2.30
2019-01-19T15:40:16.376Z,2.30
2019-01-19T15:42:57.186Z,2.20
2019-01-19T15:45:37.970Z,2.10
2019-01-19T15:48:18.887Z,2.00
2019-01-19T15:50:59.537Z,1.80
2019-01-19T15:53:40.570Z,1.80
2019-01-19T15:56:21.347Z,1.60
2019-01-19T15:59:01.894Z,1.40
2019-01-19T16:01:42.679Z,1.40
2019-01-19T16:04:23.449Z,1.40
2019-01-19T16:07:04.389Z,1.10
2019-01-19T16:09:45.157Z,1.20
2019-01-19T16:12:26.139Z,0.90
2019-01-19T16:15:07.123Z,1.00
2019-01-19T16:17:47.997Z,0.80
2019-01-19T16:20:28.651Z,0.70
2019-01-19T16:23:09.331Z,0.60
2019-01-19T16:25:50.343Z,0.70
2019-01-19T16:28:30.694Z,0.50
2019-01-19T16:31:11.890Z,0.50
2019-01-19T16:33:52.550Z,0.40
2019-01-19T16:36:33.638Z,0.30
2019-01-19T16:39:14.426Z,0.30
2019-01-19T16:41:55.774Z,0.20
2019-01-19T16:44:36.357Z,0.20
2019-01-19T16:47:16.945Z,0.10
2019-01-19T16:49:57.957Z,0.00
2019-01-19T16:52:39.011Z,0.00
2019-01-19T16:55:19.458Z,-0.10
2019-01-19T16:58:03.457Z,-0.10
2019-01-19T17:00:44.202Z,-0.10
2019-01-19T17:03:25.986Z,-0.20
2019-01-19T17:06:07.010Z,-0.20
2019-01-19T17:08:47.658Z,-0.20
2019-01-19T17:11:28.503Z,-0.30
2019-01-19T17:14:09.738Z,-0.20
2019-01-19T17:16:50.282Z,-0.20
2019-01-19T17:19:31.226Z,-0.30
2019-01-19T17:22:11.971Z,-0.30
2019-01-19T17:24:52.501Z,-0.30
2019-01-19T17:27:33.575Z,-0.30
2019-01-19T17:30:14.351Z,-0.30
2019-01-19T17:32:55.143Z,-0.40
2019-01-19T17:35:37.146Z,-0.40
2019-01-19T17:38:17.728Z,-0.40
2019-01-19T17:40:58.662Z,-0.50
2019-01-19T17:43:39.458Z,-0.50
2019-01-19T17:46:20.153Z,-0.50
2019-01-19T17:49:00.677Z,-0.50
2019-01-19T17:51:41.357Z,-0.60
2019-01-19T17:54:22.421Z,-0.60
2019-01-19T17:57:03.493Z,-0.60
2019-01-19T17:59:44.874Z,-0.60
2019-01-19T18:02:25.505Z,-0.50
2019-01-19T18:05:05.957Z,-0.60
2019-01-19T18:07:46.467Z,-0.60
2019-01-19T18:10:26.985Z,-0.60
2019-01-19T18:13:07.429Z,-0.60
2019-01-19T18:15:48.140Z,-0.70
2019-01-19T18:18:29.272Z,-0.70
2019-01-19T18:21:09.986Z,-0.80
2019-01-19T18:23:50.421Z,-0.80
2019-01-19T18:26:31.267Z,-0.90
2019-01-19T18:29:14.609Z,-0.90
2019-01-19T18:32:23.137Z,-1.00
2019-01-19T18:35:30.238Z,-1.00
2019-01-19T18:38:37.326Z,-1.00
2019-01-19T18:41:18.137Z,-1.10
2019-01-19T18:43:58.673Z,-1.00
2019-01-19T18:46:39.843Z,-1.00
2019-01-19T18:49:20.432Z,-1.00
2019-01-19T18:52:01.320Z,-1.00
2019-01-19T18:54:42.395Z,-1.10
2019-01-19T18:57:23.182Z,-1.20
2019-01-19T19:00:05.062Z,-1.20
2019-01-19T19:02:45.691Z,-1.10
2019-01-19T19:05:26.421Z,-1.20
2019-01-19T19:08:07.658Z,-0.80
2019-01-19T19:10:48.446Z,-1.30
2019-01-19T19:13:28.958Z,-1.30
2019-01-19T19:16:10.076Z,-1.20
2019-01-19T19:18:51.198Z,-1.30
2019-01-19T19:21:32.050Z,-1.40
2019-01-19T19:24:12.654Z,-3.10
2019-01-19T19:26:53.690Z,-1.40
2019-01-19T19:29:34.678Z,-1.40
2019-01-19T19:32:15.341Z,-1.40
2019-01-19T19:37:46.718Z,-1.30
2019-01-19T19:40:27.486Z,-1.30
2019-01-19T19:43:08.365Z,-1.50
2019-01-19T19:45:49.403Z,-1.40
2019-01-19T19:48:30.518Z,-1.40
2019-01-19T19:51:11.826Z,-1.50
2019-01-19T19:53:52.544Z,-3.20
2019-01-19T19:56:33.184Z,-1.70
2019-01-19T19:59:13.899Z,-1.70
2019-01-19T20:01:54.668Z,-1.70
2019-01-19T20:04:35.066Z,-1.70
2019-01-19T20:07:15.809Z,-1.70
2019-01-19T20:09:56.614Z,-1.70
2019-01-19T20:12:37.422Z,-1.80
2019-01-19T20:15:17.766Z,-1.80
2019-01-19T20:17:58.205Z,-1.80
2019-01-19T20:20:38.701Z,-1.90
2019-01-19T20:23:19.642Z,-2.00
2019-01-19T20:26:00.286Z,-2.00
2019-01-19T20:28:41.178Z,-2.00
2019-01-19T20:31:22.198Z,-2.10
2019-01-19T20:34:02.807Z,-2.00
2019-01-19T20:36:43.769Z,-2.10
2019-01-19T20:39:24.418Z,-2.10
2019-01-19T20:42:05.032Z,-2.10
2019-01-19T20:44:45.449Z,-2.20
2019-01-19T20:47:26.686Z,-2.10
2019-01-19T20:50:07.408Z,-2.20
2019-01-19T20:52:48.241Z,-2.10
2019-01-19T20:55:28.889Z,-2.10
2019-01-19T20:58:12.894Z,-2.20
2019-01-19T21:00:53.795Z,-2.10
2019-01-19T21:03:34.886Z,-2.20
2019-01-19T21:06:15.718Z,-2.10
2019-01-19T21:08:56.491Z,-2.20
2019-01-19T21:11:37.065Z,-2.40
2019-01-19T21:14:17.883Z,-2.40
2019-01-19T21:16:59.166Z,-2.50
2019-01-19T21:19:39.754Z,-2.40
2019-01-19T21:22:20.251Z,-2.40
2019-01-19T21:25:00.840Z,-2.50
2019-01-19T21:27:42.181Z,-2.50
2019-01-19T21:30:24.471Z,-2.50
2019-01-19T21:33:04.827Z,-2.70
2019-01-19T21:35:45.193Z,-2.60
2019-01-19T21:38:25.856Z,-2.60
2019-01-19T21:41:06.475Z,-2.80
2019-01-19T21:43:47.190Z,-2.70
2019-01-19T21:46:28.498Z,-2.70
2019-01-19T21:49:09.038Z,-2.80
2019-01-19T21:51:49.721Z,-2.90
2019-01-19T21:54:30.269Z,-2.90
2019-01-19T21:57:10.890Z,-2.90
2019-01-19T21:59:51.720Z,-2.70
2019-01-19T22:02:32.942Z,-2.80
2019-01-19T22:05:13.961Z,-2.80
2019-01-19T22:07:54.730Z,-2.90
2019-01-19T22:10:35.237Z,-3.00
2019-01-19T22:13:15.657Z,-2.90
2019-01-19T22:15:56.308Z,-3.00
2019-01-19T22:18:36.669Z,-2.90
2019-01-19T22:21:17.502Z,-2.90
2019-01-19T22:23:59.903Z,-3.00
2019-01-19T22:26:41.026Z,-3.00
2019-01-19T22:29:21.923Z,-3.00
2019-01-19T22:32:02.687Z,-2.90
2019-01-19T22:34:43.360Z,-3.10
2019-01-19T22:37:24.418Z,-3.00
2019-01-19T22:40:05.215Z,-3.00
2019-01-19T22:42:46.002Z,-3.00
2019-01-19T22:45:26.602Z,-3.10
2019-01-19T22:48:07.466Z,-3.10
2019-01-19T22:50:48.034Z,-3.10
2019-01-19T22:53:28.563Z,-3.20
2019-01-19T22:56:09.053Z,-3.10
2019-01-19T22:58:49.670Z,-3.20
2019-01-19T23:01:31.007Z,-3.20
2019-01-19T23:04:11.843Z,-3.20
2019-01-19T23:06:52.586Z,-3.30
2019-01-19T23:09:33.153Z,-3.30
2019-01-19T23:12:13.814Z,-3.30
2019-01-19T23:14:54.433Z,-3.20
2019-01-19T23:17:38.249Z,-3.30
2019-01-19T23:20:18.736Z,-3.30
2019-01-19T23:22:59.488Z,-3.40
2019-01-19T23:25:39.974Z,-3.40
2019-01-19T23:28:21.209Z,-3.50
2019-01-19T23:31:02.119Z,-3.40
2019-01-19T23:33:42.586Z,-3.40
2019-01-19T23:36:23.682Z,-3.50
2019-01-19T23:39:04.262Z,-3.50
2019-01-19T23:41:45.126Z,-3.40
2019-01-19T23:44:28.626Z,-3.40
2019-01-19T23:47:10.062Z,-3.50
2019-01-19T23:49:50.845Z,-3.50
2019-01-19T23:52:31.550Z,-3.40
2019-01-19T23:55:12.023Z,-3.20
2019-01-19T23:57:53.182Z,-3.20
